sensor_id;sensor_type;location;lat;lon;timestamp;P1;durP1;ratioP1;P2;durP2;ratioP2
80705;SDS011;70229;48.010;7.852;2023-10-08T08:12:24;11.52;;;4.05;;
80705;SDS011;70229;48.010;7.852;2023-10-08T08:14:51;9.65;;;3.95;;
80705;SDS011;70229;48.010;7.852;2023-10-08T08:17:17;13.05;;;3.50;;
80705;SDS011;70229;48.010;7.852;2023-10-08T08:19:44;9.68;;;4.10;;
80705;SDS011;70229;48.010;7.852;2023-10-08T08:22:18;11.55;;;4.13;;
80705;SDS011;70229;48.010;7.852;2023-10-08T08:24:51;9.90;;;4.25;;
80705;SDS011;70229;48.010;7.852;2023-10-08T08:27:30;8.82;;;3.75;;
80705;SDS011;70229;48.010;7.852;2023-10-08T08:30:01;9.80;;;3.47;;
80705;SDS011;70229;48.010;7.852;2023-10-08T08:32:50;12.50;;;5.20;;
80705;SDS011;70229;48.010;7.852;2023-10-08T08:36:06;7.63;;;3.70;;
80705;SDS011;70229;48.010;7.852;2023-10-08T08:38:32;8.90;;;3.30;;
80705;SDS011;70229;48.010;7.852;2023-10-08T08:41:01;13.55;;;3.33;;
80705;SDS011;70229;48.010;7.852;2023-10-08T08:43:54;13.55;;;4.53;;
80705;SDS011;70229;48.010;7.852;2023-10-08T08:52:22;10.68;;;4.30;;
80705;SDS011;70229;48.010;7.852;2023-10-08T08:55:59;11.75;;;4.10;;
80705;SDS011;70229;48.010;7.852;2023-10-08T08:58:37;9.43;;;3.83;;
80705;SDS011;70229;48.010;7.852;2023-10-08T09:01:07;11.32;;;4.35;;
80705;SDS011;70229;48.010;7.852;2023-10-08T09:03:50;11.90;;;4.60;;
80705;SDS011;70229;48.010;7.852;2023-10-08T09:06:26;9.73;;;4.45;;
80705;SDS011;70229;48.010;7.852;2023-10-08T09:08:52;8.45;;;3.40;;
80705;SDS011;70229;48.010;7.852;2023-10-08T09:11:39;10.90;;;4.03;;
80705;SDS011;70229;48.010;7.852;2023-10-08T09:14:11;9.27;;;3.83;;
80705;SDS011;70229;48.010;7.852;2023-10-08T09:23:13;7.15;;;3.50;;
80705;SDS011;70229;48.010;7.852;2023-10-08T14:35:13;18.58;;;5.40;;
80705;SDS011;70229;48.010;7.852;2023-10-08T14:37:57;26.90;;;6.95;;
80705;SDS011;70229;48.010;7.852;2023-10-08T14:40:43;16.92;;;4.93;;
80705;SDS011;70229;48.010;7.852;2023-10-08T14:43:27;24.30;;;5.85;;
80705;SDS011;70229;48.010;7.852;2023-10-08T14:45:56;17.33;;;4.90;;
80705;SDS011;70229;48.010;7.852;2023-10-08T14:48:24;15.63;;;4.97;;
80705;SDS011;70229;48.010;7.852;2023-10-08T14:50:54;17.17;;;5.53;;
80705;SDS011;70229;48.010;7.852;2023-10-08T14:53:21;13.10;;;4.78;;
80705;SDS011;70229;48.010;7.852;2023-10-08T14:55:48;26.90;;;4.75;;
80705;SDS011;70229;48.010;7.852;2023-10-08T14:58:15;20.05;;;4.75;;
80705;SDS011;70229;48.010;7.852;2023-10-08T15:00:44;24.40;;;5.28;;
80705;SDS011;70229;48.010;7.852;2023-10-08T15:03:17;15.88;;;5.07;;
80705;SDS011;70229;48.010;7.852;2023-10-08T15:05:46;15.93;;;4.40;;
80705;SDS011;70229;48.010;7.852;2023-10-08T15:08:15;14.75;;;4.90;;
80705;SDS011;70229;48.010;7.852;2023-10-08T15:10:43;14.73;;;4.78;;
80705;SDS011;70229;48.010;7.852;2023-10-08T15:13:12;21.63;;;4.53;;
80705;SDS011;70229;48.010;7.852;2023-10-08T15:15:41;14.55;;;4.82;;
80705;SDS011;70229;48.010;7.852;2023-10-08T15:18:08;12.57;;;5.43;;
80705;SDS011;70229;48.010;7.852;2023-10-08T15:20:46;16.55;;;5.47;;
80705;SDS011;70229;48.010;7.852;2023-10-08T15:23:25;16.38;;;5.13;;
80705;SDS011;70229;48.010;7.852;2023-10-08T15:26:01;14.45;;;5.07;;
80705;SDS011;70229;48.010;7.852;2023-10-08T15:28:27;18.35;;;5.53;;
80705;SDS011;70229;48.010;7.852;2023-10-08T15:30:53;17.63;;;5.28;;
80705;SDS011;70229;48.010;7.852;2023-10-08T15:33:19;18.80;;;5.72;;
80705;SDS011;70229;48.010;7.852;2023-10-08T15:35:44;12.57;;;5.22;;
80705;SDS011;70229;48.010;7.852;2023-10-08T15:38:10;20.40;;;4.85;;
80705;SDS011;70229;48.010;7.852;2023-10-08T15:40:37;18.83;;;5.47;;
80705;SDS011;70229;48.010;7.852;2023-10-08T15:43:03;20.58;;;5.65;;
80705;SDS011;70229;48.010;7.852;2023-10-08T15:45:29;15.82;;;5.63;;
80705;SDS011;70229;48.010;7.852;2023-10-08T15:48:01;14.45;;;5.32;;
80705;SDS011;70229;48.010;7.852;2023-10-08T15:50:31;12.32;;;5.18;;
80705;SDS011;70229;48.010;7.852;2023-10-08T15:52:58;17.63;;;4.85;;
80705;SDS011;70229;48.010;7.852;2023-10-08T15:55:25;23.95;;;5.47;;
80705;SDS011;70229;48.010;7.852;2023-10-08T15:57:55;18.45;;;5.43;;
80705;SDS011;70229;48.010;7.852;2023-10-08T16:00:30;12.52;;;4.93;;
80705;SDS011;70229;48.010;7.852;2023-10-08T16:03:49;12.73;;;4.93;;
80705;SDS011;70229;48.010;7.852;2023-10-08T16:06:34;15.68;;;5.68;;
80705;SDS011;70229;48.010;7.852;2023-10-08T16:09:03;14.98;;;4.90;;
80705;SDS011;70229;48.010;7.852;2023-10-08T16:11:32;24.65;;;5.43;;
80705;SDS011;70229;48.010;7.852;2023-10-08T16:13:59;15.85;;;6.25;;
80705;SDS011;70229;48.010;7.852;2023-10-08T16:16:25;12.43;;;5.72;;
80705;SDS011;70229;48.010;7.852;2023-10-08T16:18:50;19.98;;;5.35;;
80705;SDS011;70229;48.010;7.852;2023-10-08T16:21:17;11.15;;;4.40;;
80705;SDS011;70229;48.010;7.852;2023-10-08T16:23:45;13.48;;;4.43;;
80705;SDS011;70229;48.010;7.852;2023-10-08T16:26:12;18.83;;;5.95;;
80705;SDS011;70229;48.010;7.852;2023-10-08T16:28:38;13.88;;;5.43;;
80705;SDS011;70229;48.010;7.852;2023-10-08T16:31:04;17.23;;;5.43;;
80705;SDS011;70229;48.010;7.852;2023-10-08T16:33:31;15.55;;;5.25;;
80705;SDS011;70229;48.010;7.852;2023-10-08T16:35:57;11.63;;;4.65;;
80705;SDS011;70229;48.010;7.852;2023-10-08T16:38:24;26.17;;;5.35;;
80705;SDS011;70229;48.010;7.852;2023-10-08T16:40:53;14.52;;;5.65;;
80705;SDS011;70229;48.010;7.852;2023-10-08T16:43:18;16.85;;;5.38;;
80705;SDS011;70229;48.010;7.852;2023-10-08T16:45:44;17.20;;;5.30;;
80705;SDS011;70229;48.010;7.852;2023-10-08T16:48:11;18.40;;;5.38;;
80705;SDS011;70229;48.010;7.852;2023-10-08T16:50:37;17.85;;;5.35;;
80705;SDS011;70229;48.010;7.852;2023-10-08T16:53:08;17.13;;;5.78;;
80705;SDS011;70229;48.010;7.852;2023-10-08T16:55:34;16.55;;;5.15;;
80705;SDS011;70229;48.010;7.852;2023-10-08T16:58:10;12.18;;;4.57;;
80705;SDS011;70229;48.010;7.852;2023-10-08T17:00:36;25.80;;;5.53;;
80705;SDS011;70229;48.010;7.852;2023-10-08T17:16:48;14.13;;;4.28;;
80705;SDS011;70229;48.010;7.852;2023-10-08T17:19:17;15.25;;;4.45;;
80705;SDS011;70229;48.010;7.852;2023-10-08T17:21:49;12.00;;;3.90;;
80705;SDS011;70229;48.010;7.852;2023-10-08T17:24:24;17.08;;;4.32;;
80705;SDS011;70229;48.010;7.852;2023-10-08T17:26:53;18.67;;;4.50;;
80705;SDS011;70229;48.010;7.852;2023-10-08T17:29:21;16.92;;;4.28;;
80705;SDS011;70229;48.010;7.852;2023-10-08T17:31:47;12.68;;;3.75;;
80705;SDS011;70229;48.010;7.852;2023-10-08T17:34:17;10.95;;;3.78;;
80705;SDS011;70229;48.010;7.852;2023-10-08T17:36:44;17.42;;;3.83;;
80705;SDS011;70229;48.010;7.852;2023-10-08T17:39:22;15.23;;;4.57;;
80705;SDS011;70229;48.010;7.852;2023-10-08T17:41:49;14.30;;;5.22;;
80705;SDS011;70229;48.010;7.852;2023-10-08T17:44:25;12.93;;;3.75;;
80705;SDS011;70229;48.010;7.852;2023-10-08T17:46:52;13.60;;;3.80;;
80705;SDS011;70229;48.010;7.852;2023-10-08T17:49:27;14.48;;;3.72;;
80705;SDS011;70229;48.010;7.852;2023-10-08T17:52:00;12.20;;;3.75;;
80705;SDS011;70229;48.010;7.852;2023-10-08T17:54:27;12.60;;;4.30;;
80705;SDS011;70229;48.010;7.852;2023-10-08T17:56:58;17.13;;;3.80;;
80705;SDS011;70229;48.010;7.852;2023-10-08T17:59:25;17.65;;;3.80;;
80705;SDS011;70229;48.010;7.852;2023-10-08T18:01:53;9.05;;;3.17;;
80705;SDS011;70229;48.010;7.852;2023-10-08T18:04:30;12.27;;;4.15;;
80705;SDS011;70229;48.010;7.852;2023-10-08T18:06:57;16.52;;;3.65;;
80705;SDS011;70229;48.010;7.852;2023-10-08T18:09:25;18.42;;;4.80;;
80705;SDS011;70229;48.010;7.852;2023-10-08T18:12:13;12.52;;;4.00;;
80705;SDS011;70229;48.010;7.852;2023-10-08T18:14:39;7.30;;;3.08;;
80705;SDS011;70229;48.010;7.852;2023-10-08T18:20:54;12.00;;;3.45;;
80705;SDS011;70229;48.010;7.852;2023-10-08T18:23:23;16.52;;;3.35;;
80705;SDS011;70229;48.010;7.852;2023-10-08T18:25:49;9.30;;;3.60;;
80705;SDS011;70229;48.010;7.852;2023-10-08T18:28:17;12.45;;;3.90;;
80705;SDS011;70229;48.010;7.852;2023-10-08T18:30:43;15.52;;;4.65;;
80705;SDS011;70229;48.010;7.852;2023-10-08T18:33:09;15.07;;;4.10;;
80705;SDS011;70229;48.010;7.852;2023-10-08T18:35:36;14.68;;;4.13;;
80705;SDS011;70229;48.010;7.852;2023-10-08T18:38:03;9.23;;;3.35;;
80705;SDS011;70229;48.010;7.852;2023-10-08T18:40:36;12.52;;;4.43;;
80705;SDS011;70229;48.010;7.852;2023-10-08T18:43:03;13.00;;;4.43;;
80705;SDS011;70229;48.010;7.852;2023-10-08T18:45:31;12.00;;;3.47;;
80705;SDS011;70229;48.010;7.852;2023-10-08T18:48:07;9.15;;;3.95;;
80705;SDS011;70229;48.010;7.852;2023-10-08T19:03:18;13.57;;;4.90;;
80705;SDS011;70229;48.010;7.852;2023-10-08T19:05:50;18.77;;;5.15;;
80705;SDS011;70229;48.010;7.852;2023-10-08T19:08:27;16.08;;;5.47;;
80705;SDS011;70229;48.010;7.852;2023-10-08T19:11:04;13.55;;;5.43;;
80705;SDS011;70229;48.010;7.852;2023-10-08T19:13:47;11.73;;;4.68;;
80705;SDS011;70229;48.010;7.852;2023-10-08T19:16:18;12.13;;;4.72;;
80705;SDS011;70229;48.010;7.852;2023-10-08T19:18:55;11.88;;;5.20;;
80705;SDS011;70229;48.010;7.852;2023-10-08T19:21:34;17.08;;;6.25;;
80705;SDS011;70229;48.010;7.852;2023-10-08T19:24:22;24.02;;;6.40;;
80705;SDS011;70229;48.010;7.852;2023-10-08T19:31:02;17.35;;;7.38;;
80705;SDS011;70229;48.010;7.852;2023-10-08T19:33:58;16.80;;;7.20;;
80705;SDS011;70229;48.010;7.852;2023-10-08T19:36:36;13.35;;;5.97;;
80705;SDS011;70229;48.010;7.852;2023-10-08T19:39:14;20.55;;;7.10;;
80705;SDS011;70229;48.010;7.852;2023-10-08T19:41:46;24.40;;;6.90;;
80705;SDS011;70229;48.010;7.852;2023-10-08T19:44:17;17.30;;;7.20;;
80705;SDS011;70229;48.010;7.852;2023-10-08T19:46:47;20.05;;;7.90;;
80705;SDS011;70229;48.010;7.852;2023-10-08T19:49:14;19.52;;;7.95;;
80705;SDS011;70229;48.010;7.852;2023-10-08T19:51:47;13.77;;;5.90;;
80705;SDS011;70229;48.010;7.852;2023-10-08T19:54:14;23.17;;;8.25;;
80705;SDS011;70229;48.010;7.852;2023-10-08T19:56:43;21.35;;;7.65;;
80705;SDS011;70229;48.010;7.852;2023-10-08T19:59:19;12.43;;;5.10;;
80705;SDS011;70229;48.010;7.852;2023-10-08T20:01:49;18.13;;;6.70;;
80705;SDS011;70229;48.010;7.852;2023-10-08T20:07:19;14.85;;;6.13;;
80705;SDS011;70229;48.010;7.852;2023-10-08T20:10:02;19.00;;;6.90;;
80705;SDS011;70229;48.010;7.852;2023-10-08T20:12:46;17.42;;;6.40;;
80705;SDS011;70229;48.010;7.852;2023-10-08T20:15:16;15.80;;;5.68;;
80705;SDS011;70229;48.010;7.852;2023-10-08T20:17:56;19.27;;;7.30;;
80705;SDS011;70229;48.010;7.852;2023-10-08T20:20:42;20.25;;;6.45;;
80705;SDS011;70229;48.010;7.852;2023-10-08T20:23:16;17.27;;;6.70;;
80705;SDS011;70229;48.010;7.852;2023-10-08T20:25:44;21.52;;;6.32;;
80705;SDS011;70229;48.010;7.852;2023-10-08T20:28:12;11.57;;;5.68;;
80705;SDS011;70229;48.010;7.852;2023-10-08T20:30:48;13.82;;;5.82;;
80705;SDS011;70229;48.010;7.852;2023-10-08T20:33:21;18.00;;;6.88;;
80705;SDS011;70229;48.010;7.852;2023-10-08T20:35:54;20.23;;;7.10;;
80705;SDS011;70229;48.010;7.852;2023-10-08T20:38:22;15.45;;;6.90;;
80705;SDS011;70229;48.010;7.852;2023-10-08T20:41:14;13.40;;;5.75;;
80705;SDS011;70229;48.010;7.852;2023-10-08T20:43:46;16.60;;;5.40;;
80705;SDS011;70229;48.010;7.852;2023-10-08T20:46:16;16.67;;;6.22;;
80705;SDS011;70229;48.010;7.852;2023-10-08T20:48:47;17.58;;;5.63;;
80705;SDS011;70229;48.010;7.852;2023-10-08T20:51:19;14.70;;;5.68;;
80705;SDS011;70229;48.010;7.852;2023-10-08T20:53:50;17.50;;;6.10;;
80705;SDS011;70229;48.010;7.852;2023-10-08T20:56:21;12.68;;;6.05;;
80705;SDS011;70229;48.010;7.852;2023-10-08T20:58:49;17.33;;;5.22;;
80705;SDS011;70229;48.010;7.852;2023-10-08T21:01:15;19.88;;;6.53;;
80705;SDS011;70229;48.010;7.852;2023-10-08T21:03:42;10.32;;;5.18;;
80705;SDS011;70229;48.010;7.852;2023-10-08T21:06:08;15.82;;;6.03;;
80705;SDS011;70229;48.010;7.852;2023-10-08T21:08:34;13.45;;;5.28;;
80705;SDS011;70229;48.010;7.852;2023-10-08T21:11:00;14.13;;;6.93;;
80705;SDS011;70229;48.010;7.852;2023-10-08T21:13:28;19.73;;;5.78;;
80705;SDS011;70229;48.010;7.852;2023-10-08T21:15:59;20.98;;;7.03;;
80705;SDS011;70229;48.010;7.852;2023-10-08T21:18:27;20.48;;;6.28;;
80705;SDS011;70229;48.010;7.852;2023-10-08T21:20:53;16.30;;;6.45;;
80705;SDS011;70229;48.010;7.852;2023-10-08T21:23:19;19.65;;;5.53;;
80705;SDS011;70229;48.010;7.852;2023-10-08T21:25:48;17.08;;;6.25;;
80705;SDS011;70229;48.010;7.852;2023-10-08T21:28:14;20.88;;;6.78;;
80705;SDS011;70229;48.010;7.852;2023-10-08T21:30:40;24.92;;;6.63;;
80705;SDS011;70229;48.010;7.852;2023-10-08T21:33:06;12.63;;;5.43;;
80705;SDS011;70229;48.010;7.852;2023-10-08T21:35:33;13.38;;;6.20;;
80705;SDS011;70229;48.010;7.852;2023-10-08T21:38:00;17.15;;;6.32;;
80705;SDS011;70229;48.010;7.852;2023-10-08T21:40:27;15.25;;;5.53;;
80705;SDS011;70229;48.010;7.852;2023-10-08T21:42:53;17.88;;;6.47;;
80705;SDS011;70229;48.010;7.852;2023-10-08T21:45:19;15.68;;;6.68;;
80705;SDS011;70229;48.010;7.852;2023-10-08T21:47:49;10.95;;;5.85;;
80705;SDS011;70229;48.010;7.852;2023-10-08T21:50:18;14.35;;;5.85;;
80705;SDS011;70229;48.010;7.852;2023-10-08T21:52:47;23.83;;;5.20;;
80705;SDS011;70229;48.010;7.852;2023-10-08T21:55:15;21.58;;;6.60;;
80705;SDS011;70229;48.010;7.852;2023-10-08T21:57:43;16.95;;;6.07;;
80705;SDS011;70229;48.010;7.852;2023-10-08T22:00:11;15.20;;;5.07;;
80705;SDS011;70229;48.010;7.852;2023-10-08T22:02:47;22.25;;;6.50;;
80705;SDS011;70229;48.010;7.852;2023-10-08T22:05:14;15.40;;;6.57;;
80705;SDS011;70229;48.010;7.852;2023-10-08T22:07:42;16.50;;;5.72;;
80705;SDS011;70229;48.010;7.852;2023-10-08T22:10:09;15.52;;;6.18;;
80705;SDS011;70229;48.010;7.852;2023-10-08T22:12:38;13.05;;;4.95;;
80705;SDS011;70229;48.010;7.852;2023-10-08T22:15:07;19.88;;;5.85;;
80705;SDS011;70229;48.010;7.852;2023-10-08T22:17:44;11.95;;;4.50;;
80705;SDS011;70229;48.010;7.852;2023-10-08T22:20:11;14.23;;;5.90;;
80705;SDS011;70229;48.010;7.852;2023-10-08T22:22:38;12.65;;;5.53;;
80705;SDS011;70229;48.010;7.852;2023-10-08T22:25:08;22.00;;;4.90;;
80705;SDS011;70229;48.010;7.852;2023-10-08T22:27:38;17.20;;;5.30;;
80705;SDS011;70229;48.010;7.852;2023-10-08T22:30:07;13.80;;;5.03;;
80705;SDS011;70229;48.010;7.852;2023-10-08T22:32:47;19.05;;;5.30;;
80705;SDS011;70229;48.010;7.852;2023-10-08T22:35:17;12.57;;;4.70;;
80705;SDS011;70229;48.010;7.852;2023-10-08T22:37:42;15.05;;;5.43;;
80705;SDS011;70229;48.010;7.852;2023-10-08T22:40:29;11.10;;;4.78;;
80705;SDS011;70229;48.010;7.852;2023-10-08T22:43:16;14.77;;;5.90;;
80705;SDS011;70229;48.010;7.852;2023-10-08T22:45:48;28.40;;;6.45;;
80705;SDS011;70229;48.010;7.852;2023-10-08T22:48:16;13.23;;;5.95;;
80705;SDS011;70229;48.010;7.852;2023-10-08T22:50:49;15.88;;;4.68;;
80705;SDS011;70229;48.010;7.852;2023-10-08T22:53:20;11.95;;;5.05;;
80705;SDS011;70229;48.010;7.852;2023-10-08T22:55:46;14.20;;;5.88;;
80705;SDS011;70229;48.010;7.852;2023-10-08T22:58:14;18.33;;;5.97;;
80705;SDS011;70229;48.010;7.852;2023-10-08T23:00:42;14.75;;;6.13;;
80705;SDS011;70229;48.010;7.852;2023-10-08T23:03:15;13.88;;;4.32;;
80705;SDS011;70229;48.010;7.852;2023-10-08T23:05:49;17.08;;;5.95;;
80705;SDS011;70229;48.010;7.852;2023-10-08T23:08:17;18.10;;;5.05;;
80705;SDS011;70229;48.010;7.852;2023-10-08T23:10:43;10.15;;;4.50;;
80705;SDS011;70229;48.010;7.852;2023-10-08T23:13:10;12.70;;;4.38;;
80705;SDS011;70229;48.010;7.852;2023-10-08T23:15:36;13.32;;;4.97;;
80705;SDS011;70229;48.010;7.852;2023-10-08T23:18:03;18.55;;;5.15;;
80705;SDS011;70229;48.010;7.852;2023-10-08T23:20:29;13.60;;;4.63;;
80705;SDS011;70229;48.010;7.852;2023-10-08T23:22:57;16.60;;;5.22;;
80705;SDS011;70229;48.010;7.852;2023-10-08T23:25:25;14.60;;;5.03;;
80705;SDS011;70229;48.010;7.852;2023-10-08T23:27:50;11.88;;;4.22;;
80705;SDS011;70229;48.010;7.852;2023-10-08T23:30:16;19.15;;;5.50;;
80705;SDS011;70229;48.010;7.852;2023-10-08T23:32:43;13.85;;;4.38;;
80705;SDS011;70229;48.010;7.852;2023-10-08T23:35:10;13.07;;;4.85;;
80705;SDS011;70229;48.010;7.852;2023-10-08T23:37:45;14.40;;;4.88;;
80705;SDS011;70229;48.010;7.852;2023-10-08T23:40:18;14.18;;;4.93;;
80705;SDS011;70229;48.010;7.852;2023-10-08T23:42:48;14.52;;;4.38;;
80705;SDS011;70229;48.010;7.852;2023-10-08T23:45:21;12.95;;;4.20;;
80705;SDS011;70229;48.010;7.852;2023-10-08T23:47:56;17.40;;;4.35;;
80705;SDS011;70229;48.010;7.852;2023-10-08T23:50:42;10.65;;;4.03;;
80705;SDS011;70229;48.010;7.852;2023-10-08T23:53:08;17.98;;;4.38;;
80705;SDS011;70229;48.010;7.852;2023-10-08T23:55:46;15.00;;;4.15;;
80705;SDS011;70229;48.010;7.852;2023-10-08T23:58:29;10.75;;;4.22;;
